Terminal Aerodrome Forecast
Issued by NWS

Home | Current Version | Previous Version | Text Only | Print | Product List | Glossary Off
Versions: 1 2 3 4 5 6 7 8 9 10 11 12 13

099
FTUS41 KCLE 261729
TAFFDY
TAF
KFDY 261729Z 2618/2718 06008KT P6SM SCT045 BKN150
     FM270000 06003KT P6SM SCT250
     FM270900 VRB03KT 3SM BR FEW250
     FM271300 24003KT P6SM FEW250=

USA.gov is the U.S. government's official web portal to all federal, state and local government web resources and services.